createdAt,value
2019-03-22T00:01:13.013Z,8.50
2019-03-22T00:03:42.997Z,8.50
2019-03-22T00:06:12.986Z,8.50
2019-03-22T00:08:43.041Z,8.50
2019-03-22T00:11:13.034Z,8.50
2019-03-22T00:13:43.035Z,8.50
2019-03-22T00:16:13.160Z,8.40
2019-03-22T00:18:43.124Z,8.50
2019-03-22T00:21:13.092Z,8.50
2019-03-22T00:23:43.051Z,8.50
2019-03-22T00:26:13.118Z,8.50
2019-03-22T00:28:43.107Z,8.50
2019-03-22T00:31:13.078Z,8.50
2019-03-22T00:33:43.084Z,8.50
2019-03-22T00:36:13.035Z,8.50
2019-03-22T00:38:43.067Z,8.50
2019-03-22T00:41:13.027Z,8.40
2019-03-22T00:43:43.000Z,8.40
2019-03-22T00:46:12.991Z,8.40
2019-03-22T00:48:42.960Z,8.30
2019-03-22T00:51:12.980Z,8.30
2019-03-22T00:53:42.960Z,8.20
2019-03-22T00:56:12.958Z,8.20
2019-03-22T00:58:42.971Z,8.10
2019-03-22T01:01:12.930Z,8.00
2019-03-22T01:03:42.924Z,8.00
2019-03-22T01:06:12.919Z,8.00
2019-03-22T01:08:42.915Z,7.90
2019-03-22T01:11:12.924Z,7.90
2019-03-22T01:13:42.916Z,7.90
2019-03-22T01:16:12.888Z,7.90
2019-03-22T01:18:42.858Z,7.80
2019-03-22T01:21:19.348Z,7.80
2019-03-22T01:23:49.352Z,7.80
2019-03-22T01:26:19.432Z,7.80
2019-03-22T01:28:49.390Z,7.80
2019-03-22T01:31:19.372Z,7.80
2019-03-22T01:33:49.379Z,7.70
2019-03-22T01:36:19.416Z,7.70
2019-03-22T01:38:49.711Z,7.70
2019-03-22T01:41:20.073Z,7.70
2019-03-22T01:43:50.105Z,7.70
2019-03-22T01:46:20.089Z,7.70
2019-03-22T01:48:50.188Z,7.60
2019-03-22T01:51:20.194Z,7.60
2019-03-22T01:53:50.164Z,7.60
2019-03-22T01:56:20.135Z,7.60
2019-03-22T01:58:51.531Z,7.50
2019-03-22T02:01:21.556Z,7.50
2019-03-22T02:03:51.538Z,7.50
2019-03-22T02:06:21.560Z,7.50
2019-03-22T02:08:52.275Z,7.50
2019-03-22T02:11:22.263Z,7.50
2019-03-22T02:13:52.263Z,7.40
2019-03-22T02:16:22.297Z,7.40
2019-03-22T02:18:52.247Z,7.40
2019-03-22T02:21:22.256Z,7.40
2019-03-22T02:23:52.426Z,7.40
2019-03-22T02:26:22.435Z,7.40
2019-03-22T02:28:52.439Z,7.30
2019-03-22T02:31:22.412Z,7.30
2019-03-22T02:33:52.464Z,7.20
2019-03-22T02:36:22.441Z,7.20
2019-03-22T02:38:52.420Z,7.10
2019-03-22T02:41:22.396Z,7.10
2019-03-22T02:43:54.719Z,7.10
2019-03-22T02:46:24.011Z,7.10
2019-03-22T02:48:54.011Z,7.10
2019-03-22T02:51:24.052Z,7.00
2019-03-22T02:53:54.028Z,7.00
2019-03-22T02:56:24.028Z,7.00
2019-03-22T02:58:54.019Z,6.90
2019-03-22T03:01:23.991Z,6.90
2019-03-22T03:03:53.979Z,6.90
2019-03-22T03:06:23.932Z,6.90
2019-03-22T03:08:54.157Z,6.80
2019-03-22T03:11:24.152Z,6.80
2019-03-22T03:13:54.138Z,6.80
2019-03-22T03:16:24.116Z,6.80
2019-03-22T03:18:54.099Z,6.80
2019-03-22T03:21:24.103Z,6.70
2019-03-22T03:23:54.351Z,6.70
2019-03-22T03:26:24.319Z,6.70
2019-03-22T03:28:54.424Z,6.60
2019-03-22T03:31:24.461Z,6.60
2019-03-22T03:33:54.414Z,6.60
2019-03-22T03:36:24.377Z,6.50
2019-03-22T03:38:54.355Z,6.50
2019-03-22T03:41:24.372Z,6.50
2019-03-22T03:43:54.327Z,6.50
2019-03-22T03:46:24.353Z,6.50
2019-03-22T03:48:56.451Z,6.40
2019-03-22T03:51:26.818Z,6.40
2019-03-22T03:53:57.041Z,6.40
2019-03-22T03:56:27.145Z,6.40
2019-03-22T03:58:57.155Z,6.40
2019-03-22T04:01:27.117Z,6.40
2019-03-22T04:03:57.092Z,6.40
2019-03-22T04:06:27.123Z,6.30
2019-03-22T04:08:57.080Z,6.30
2019-03-22T04:11:27.056Z,6.30
2019-03-22T04:13:57.069Z,6.30
2019-03-22T04:16:27.048Z,6.30
2019-03-22T04:18:57.024Z,6.30
2019-03-22T04:21:27.073Z,6.30
2019-03-22T04:23:57.131Z,6.30
2019-03-22T04:26:27.167Z,6.20
2019-03-22T04:29:07.266Z,6.20
2019-03-22T04:31:28.848Z,6.20
2019-03-22T04:33:58.835Z,6.20
2019-03-22T04:36:28.827Z,6.20
2019-03-22T04:38:58.803Z,6.20
2019-03-22T04:41:28.763Z,6.20
2019-03-22T04:43:58.719Z,6.20
2019-03-22T04:46:29.039Z,6.20
2019-03-22T04:49:00.498Z,6.20
2019-03-22T04:51:31.910Z,6.10
2019-03-22T04:54:04.004Z,6.20
2019-03-22T04:56:36.344Z,6.20
2019-03-22T04:59:18.375Z,6.20
2019-03-22T05:01:42.581Z,6.20
2019-03-22T05:04:13.804Z,6.20
2019-03-22T05:06:45.915Z,6.20
2019-03-22T05:09:17.464Z,6.20
2019-03-22T05:11:48.903Z,6.20
2019-03-22T05:14:20.235Z,6.20
2019-03-22T05:16:52.915Z,6.30
2019-03-22T05:19:25.035Z,6.30
2019-03-22T05:21:56.720Z,6.30
2019-03-22T05:24:28.607Z,6.30
2019-03-22T05:27:00.411Z,6.30
2019-03-22T05:29:33.524Z,6.30
2019-03-22T05:32:07.808Z,6.30
2019-03-22T05:34:37.844Z,6.30
2019-03-22T05:37:07.851Z,6.30
2019-03-22T05:39:37.868Z,6.30
2019-03-22T05:42:07.935Z,6.30
2019-03-22T05:44:37.946Z,6.20
2019-03-22T05:47:07.923Z,6.30
2019-03-22T05:49:37.944Z,6.30
2019-03-22T05:52:07.950Z,6.30
2019-03-22T05:54:37.935Z,6.30
2019-03-22T05:57:13.224Z,6.30
2019-03-22T05:59:42.784Z,6.30
2019-03-22T06:02:11.391Z,6.30
2019-03-22T06:04:41.311Z,6.30
2019-03-22T06:07:11.303Z,6.30
2019-03-22T06:09:41.296Z,6.40
2019-03-22T06:12:11.327Z,6.40
2019-03-22T06:14:41.316Z,6.40
2019-03-22T06:17:11.352Z,6.50
2019-03-22T06:19:41.347Z,6.50
2019-03-22T06:22:11.396Z,6.50
2019-03-22T06:24:41.440Z,6.60
2019-03-22T06:27:11.410Z,6.60
2019-03-22T06:29:41.435Z,6.60
2019-03-22T06:32:11.482Z,6.70
2019-03-22T06:34:42.340Z,6.80
2019-03-22T06:37:12.343Z,6.90
2019-03-22T06:39:42.308Z,7.00
2019-03-22T06:42:12.348Z,7.00
2019-03-22T06:44:42.333Z,7.10
2019-03-22T06:47:12.346Z,7.20
2019-03-22T06:49:42.307Z,7.20
2019-03-22T06:52:12.288Z,7.30
2019-03-22T06:54:42.350Z,7.30
2019-03-22T06:57:12.305Z,7.30
2019-03-22T06:59:42.274Z,7.40
2019-03-22T07:02:12.260Z,7.40
2019-03-22T07:04:42.219Z,7.40
2019-03-22T07:07:12.189Z,7.40
2019-03-22T07:09:42.185Z,7.40
2019-03-22T07:12:12.208Z,7.40
2019-03-22T07:14:42.211Z,7.50
2019-03-22T07:17:12.191Z,7.60
2019-03-22T07:19:42.179Z,7.70
2019-03-22T07:22:12.239Z,7.70
2019-03-22T07:24:42.272Z,7.80
2019-03-22T07:27:12.234Z,7.80
2019-03-22T07:29:42.226Z,7.80
2019-03-22T07:32:12.233Z,7.80
2019-03-22T07:34:42.231Z,7.90
2019-03-22T07:37:12.200Z,7.90
2019-03-22T07:39:42.192Z,8.00
2019-03-22T07:42:12.299Z,8.10
2019-03-22T07:44:42.300Z,8.10
2019-03-22T07:47:12.251Z,8.10
2019-03-22T07:49:42.291Z,8.10
2019-03-22T07:52:12.287Z,8.20
2019-03-22T07:54:42.267Z,8.20
2019-03-22T07:57:12.253Z,8.20
2019-03-22T07:59:42.215Z,8.30
2019-03-22T08:02:12.244Z,8.30
2019-03-22T08:04:42.263Z,8.40
2019-03-22T08:07:12.287Z,8.40
2019-03-22T08:09:42.438Z,8.40
2019-03-22T08:12:12.874Z,8.50
2019-03-22T08:14:42.978Z,8.60
2019-03-22T08:17:13.154Z,8.50
2019-03-22T08:19:43.118Z,8.50
2019-03-22T08:22:13.111Z,8.60
2019-03-22T08:24:43.110Z,8.70
2019-03-22T08:27:13.112Z,8.70
2019-03-22T08:29:43.155Z,8.80
2019-03-22T08:32:13.153Z,8.80
2019-03-22T08:34:43.250Z,8.80
2019-03-22T08:37:13.243Z,8.90
2019-03-22T08:39:43.228Z,8.90
2019-03-22T08:42:13.201Z,9.00
2019-03-22T08:44:43.216Z,9.00
2019-03-22T08:47:13.210Z,9.00
2019-03-22T08:49:43.365Z,9.00
2019-03-22T08:52:13.547Z,9.00
2019-03-22T08:54:43.573Z,9.10
2019-03-22T08:57:13.521Z,9.10
2019-03-22T08:59:43.526Z,9.10
2019-03-22T09:02:13.561Z,9.10
2019-03-22T09:04:43.567Z,9.10
2019-03-22T09:07:13.597Z,9.20
2019-03-22T09:09:43.584Z,9.20
2019-03-22T09:12:13.568Z,9.20
2019-03-22T09:14:43.561Z,9.30
2019-03-22T09:17:13.601Z,9.30
2019-03-22T09:19:43.639Z,9.40
2019-03-22T09:22:13.622Z,9.30
2019-03-22T09:24:43.611Z,9.30
2019-03-22T09:27:13.678Z,9.20
2019-03-22T09:29:43.712Z,9.20
2019-03-22T09:32:13.698Z,9.10
2019-03-22T09:34:43.759Z,9.10
2019-03-22T09:37:13.828Z,9.10
2019-03-22T09:39:43.826Z,9.20
2019-03-22T09:42:13.853Z,9.20
2019-03-22T09:44:45.179Z,9.20
2019-03-22T09:47:16.674Z,9.30
2019-03-22T09:49:46.935Z,9.30
2019-03-22T09:52:16.935Z,9.40
2019-03-22T09:54:46.975Z,9.40
2019-03-22T09:57:16.956Z,9.40
2019-03-22T09:59:46.928Z,9.40
2019-03-22T10:02:16.957Z,9.40
2019-03-22T10:04:46.960Z,9.40
2019-03-22T10:07:16.987Z,9.50
2019-03-22T10:09:47.002Z,9.50
2019-03-22T10:12:16.988Z,9.50
2019-03-22T10:14:47.035Z,9.50
2019-03-22T10:17:16.995Z,9.40
2019-03-22T10:19:46.965Z,9.40
2019-03-22T10:22:17.067Z,9.30
2019-03-22T10:24:47.106Z,9.30
2019-03-22T10:27:17.054Z,9.30
2019-03-22T10:29:47.312Z,9.30
2019-03-22T10:32:17.313Z,9.30
2019-03-22T10:34:47.309Z,9.30
2019-03-22T10:37:17.368Z,9.40
2019-03-22T10:39:47.348Z,9.50
2019-03-22T10:42:17.332Z,9.60
2019-03-22T10:44:47.292Z,9.70
2019-03-22T10:47:18.133Z,9.80
2019-03-22T10:49:48.651Z,9.90
2019-03-22T10:52:18.637Z,10.00
2019-03-22T10:54:48.592Z,10.10
2019-03-22T10:57:18.715Z,10.30
2019-03-22T10:59:48.712Z,10.40
2019-03-22T11:02:20.352Z,10.40
2019-03-22T11:04:50.470Z,10.40
2019-03-22T11:07:20.463Z,10.40
2019-03-22T11:09:50.438Z,10.40
2019-03-22T11:12:20.463Z,10.40
2019-03-22T11:14:50.442Z,10.40
2019-03-22T11:17:20.506Z,10.40
2019-03-22T11:19:50.612Z,10.40
2019-03-22T11:22:20.573Z,10.40
2019-03-22T11:24:50.618Z,10.40
2019-03-22T11:27:22.089Z,10.40
2019-03-22T11:29:52.209Z,10.40
2019-03-22T11:32:22.222Z,10.40
2019-03-22T11:34:52.234Z,10.30
2019-03-22T11:37:22.309Z,10.40
2019-03-22T11:39:52.589Z,10.40
2019-03-22T11:42:22.579Z,10.40
2019-03-22T11:44:52.610Z,10.40
2019-03-22T11:47:22.583Z,10.30
2019-03-22T11:49:52.652Z,10.30
2019-03-22T11:52:22.639Z,10.30
2019-03-22T11:54:52.634Z,10.40
2019-03-22T11:57:22.656Z,10.50
2019-03-22T11:59:52.655Z,10.50
2019-03-22T12:02:22.821Z,10.60
2019-03-22T12:04:52.814Z,10.60
2019-03-22T12:07:22.786Z,10.60
2019-03-22T12:09:52.751Z,10.60
2019-03-22T12:12:22.759Z,10.60
2019-03-22T12:14:52.864Z,10.60
2019-03-22T12:17:22.863Z,10.70
2019-03-22T12:19:52.963Z,10.70
2019-03-22T12:22:22.988Z,10.70
2019-03-22T12:24:52.983Z,10.70
2019-03-22T12:27:22.969Z,10.80
2019-03-22T12:29:53.459Z,10.80
2019-03-22T12:32:31.926Z,10.70
2019-03-22T12:34:55.312Z,10.80
2019-03-22T12:37:30.051Z,10.90
2019-03-22T12:40:01.204Z,11.00
2019-03-22T12:42:31.253Z,11.10
2019-03-22T12:45:01.292Z,11.10
2019-03-22T12:47:31.265Z,11.10
2019-03-22T12:50:01.325Z,11.10
2019-03-22T12:52:31.442Z,11.00
2019-03-22T12:55:01.488Z,11.00
2019-03-22T12:57:31.517Z,11.00
2019-03-22T13:00:01.505Z,11.10
2019-03-22T13:02:31.497Z,11.10
2019-03-22T13:05:01.490Z,11.10
2019-03-22T13:07:31.460Z,11.10
2019-03-22T13:10:01.454Z,11.10
2019-03-22T13:12:31.414Z,11.10
2019-03-22T13:15:01.398Z,11.20
2019-03-22T13:17:31.404Z,11.20
2019-03-22T13:20:01.406Z,11.20
2019-03-22T13:22:31.388Z,11.30
2019-03-22T13:25:01.383Z,11.30
2019-03-22T13:27:31.391Z,11.40
2019-03-22T13:30:01.356Z,11.50
2019-03-22T13:32:31.377Z,11.50
2019-03-22T13:35:01.369Z,11.60
2019-03-22T13:37:31.394Z,11.60
2019-03-22T13:40:01.378Z,11.70
2019-03-22T13:42:31.410Z,11.80
2019-03-22T13:45:01.453Z,11.80
2019-03-22T13:47:31.439Z,11.70
2019-03-22T13:50:01.414Z,11.70
2019-03-22T13:52:31.409Z,11.70
2019-03-22T13:55:01.425Z,11.70
2019-03-22T13:57:31.470Z,11.70
2019-03-22T14:00:01.509Z,11.70
2019-03-22T14:02:31.496Z,11.70
2019-03-22T14:05:01.490Z,11.60
2019-03-22T14:07:31.481Z,11.70
2019-03-22T14:10:01.460Z,11.70
2019-03-22T14:12:50.219Z,11.60
2019-03-22T14:15:20.216Z,11.60
2019-03-22T14:17:50.229Z,11.70
2019-03-22T14:20:20.191Z,11.80
2019-03-22T14:22:50.198Z,11.80
2019-03-22T14:25:20.564Z,11.70
2019-03-22T14:27:50.616Z,11.70
2019-03-22T14:30:20.595Z,11.70
2019-03-22T14:32:50.577Z,11.70
2019-03-22T14:35:20.572Z,11.60
2019-03-22T14:37:50.561Z,11.50
2019-03-22T14:40:20.556Z,11.40
2019-03-22T14:42:50.733Z,11.30
2019-03-22T14:45:21.133Z,11.20
2019-03-22T14:47:51.294Z,11.20
2019-03-22T14:50:21.682Z,11.10
2019-03-22T14:52:53.477Z,11.00
2019-03-22T14:55:23.765Z,10.90
2019-03-22T14:57:53.825Z,10.80
2019-03-22T15:00:23.873Z,10.80
2019-03-22T15:02:53.935Z,10.70
2019-03-22T15:05:23.921Z,10.60
2019-03-22T15:07:53.897Z,10.50
2019-03-22T15:10:23.953Z,10.50
2019-03-22T15:12:53.973Z,10.40
2019-03-22T15:15:40.097Z,10.40
2019-03-22T15:18:21.230Z,10.30
2019-03-22T15:21:08.806Z,10.30
2019-03-22T15:24:03.762Z,10.30
2019-03-22T15:26:44.330Z,10.20
2019-03-22T15:29:31.981Z,10.20
2019-03-22T15:32:21.515Z,10.10
2019-03-22T15:35:10.543Z,10.10
2019-03-22T15:38:11.653Z,10.00
2019-03-22T15:40:41.655Z,9.90
2019-03-22T15:43:11.639Z,9.80
2019-03-22T15:45:41.712Z,9.70
2019-03-22T15:48:11.708Z,9.60
2019-03-22T15:50:41.660Z,9.60
2019-03-22T15:53:11.698Z,9.50
2019-03-22T15:55:41.623Z,9.50
2019-03-22T15:58:11.616Z,9.40
2019-03-22T16:00:41.588Z,9.30
2019-03-22T16:03:11.567Z,9.30
2019-03-22T16:05:41.528Z,9.20
2019-03-22T16:08:11.548Z,9.10
2019-03-22T16:10:41.532Z,9.10
2019-03-22T16:13:11.527Z,9.00
2019-03-22T16:15:41.504Z,8.90
2019-03-22T16:18:11.503Z,8.90
2019-03-22T16:20:41.531Z,8.80
2019-03-22T16:23:11.487Z,8.80
2019-03-22T16:25:41.447Z,8.70
2019-03-22T16:28:11.531Z,8.70
2019-03-22T16:30:41.532Z,8.70
2019-03-22T16:33:11.502Z,8.60
2019-03-22T16:35:41.455Z,8.60
2019-03-22T16:38:11.493Z,8.60
2019-03-22T16:40:41.448Z,8.60
2019-03-22T16:43:11.420Z,8.50
2019-03-22T16:45:42.741Z,8.50
2019-03-22T16:48:12.743Z,8.40
2019-03-22T16:50:42.735Z,8.40
2019-03-22T16:53:12.755Z,8.40
2019-03-22T16:55:42.775Z,8.40
2019-03-22T16:58:13.029Z,8.30
2019-03-22T17:00:43.039Z,8.30
2019-03-22T17:03:13.075Z,8.30
2019-03-22T17:05:43.040Z,8.20
2019-03-22T17:08:13.001Z,8.20
2019-03-22T17:10:43.079Z,8.20
2019-03-22T17:13:13.065Z,8.20
2019-03-22T17:15:43.129Z,8.20
2019-03-22T17:18:13.112Z,8.20
2019-03-22T17:20:43.143Z,8.10
2019-03-22T17:23:13.133Z,8.10
2019-03-22T17:25:43.167Z,8.10
2019-03-22T17:28:13.195Z,8.10
2019-03-22T17:30:43.156Z,8.10
2019-03-22T17:33:13.159Z,8.00
2019-03-22T17:35:43.145Z,8.00
2019-03-22T17:38:13.122Z,8.00
2019-03-22T17:40:43.143Z,8.00
2019-03-22T17:43:13.147Z,7.90
2019-03-22T17:45:43.196Z,7.90
2019-03-22T17:48:13.175Z,7.90
2019-03-22T17:50:43.193Z,7.80
2019-03-22T17:53:13.171Z,7.80
2019-03-22T17:55:43.231Z,7.80
2019-03-22T17:58:13.228Z,7.70
2019-03-22T18:00:43.813Z,7.70
2019-03-22T18:03:13.811Z,7.70
2019-03-22T18:05:43.840Z,7.70
2019-03-22T18:08:13.961Z,7.70
2019-03-22T18:10:43.902Z,7.70
2019-03-22T18:13:13.875Z,7.70
2019-03-22T18:15:43.887Z,7.60
2019-03-22T18:18:13.989Z,7.60
2019-03-22T18:20:43.953Z,7.60
2019-03-22T18:23:13.947Z,7.60
2019-03-22T18:25:43.968Z,7.60
2019-03-22T18:28:13.963Z,7.60
2019-03-22T18:30:43.944Z,7.50
2019-03-22T18:33:13.982Z,7.50
2019-03-22T18:35:43.960Z,7.50
2019-03-22T18:38:14.064Z,7.50
2019-03-22T18:40:44.327Z,7.50
2019-03-22T18:43:14.300Z,7.50
2019-03-22T18:45:44.336Z,7.50
2019-03-22T18:48:14.359Z,7.50
2019-03-22T18:50:44.368Z,7.50
2019-03-22T18:53:14.422Z,7.50
2019-03-22T18:58:40.592Z,7.40
2019-03-22T19:01:10.564Z,7.40
2019-03-22T19:03:40.543Z,7.40
2019-03-22T19:06:10.552Z,7.40
2019-03-22T19:08:40.963Z,7.40
2019-03-22T19:11:10.935Z,7.40
2019-03-22T19:13:40.983Z,7.50
2019-03-22T19:16:10.985Z,7.40
2019-03-22T19:18:41.070Z,7.40
2019-03-22T19:21:11.111Z,7.40
2019-03-22T19:23:41.184Z,7.40
2019-03-22T19:26:11.204Z,7.40
2019-03-22T19:28:41.188Z,7.40
2019-03-22T19:31:11.166Z,7.40
2019-03-22T19:33:41.164Z,7.40
2019-03-22T19:36:11.219Z,7.50
2019-03-22T19:38:41.184Z,7.50
2019-03-22T19:41:11.151Z,7.40
2019-03-22T19:43:41.195Z,7.50
2019-03-22T19:46:11.718Z,7.50
2019-03-22T19:48:41.896Z,7.50
2019-03-22T19:51:12.791Z,7.50
2019-03-22T19:53:42.778Z,7.50
2019-03-22T19:56:12.793Z,7.50
2019-03-22T19:58:42.787Z,7.50
2019-03-22T20:01:12.855Z,7.50
2019-03-22T20:03:42.889Z,7.50
2019-03-22T20:06:12.859Z,7.50
2019-03-22T20:08:42.852Z,7.50
2019-03-22T20:11:12.852Z,7.50
2019-03-22T20:13:42.852Z,7.50
2019-03-22T20:16:12.831Z,7.50
2019-03-22T20:18:42.995Z,7.60
2019-03-22T20:21:12.975Z,7.60
2019-03-22T20:23:53.042Z,7.60
2019-03-22T20:26:14.641Z,7.60
2019-03-22T20:28:44.611Z,7.60
2019-03-22T20:31:14.611Z,7.60
2019-03-22T20:33:44.640Z,7.50
2019-03-22T20:36:14.728Z,7.60
2019-03-22T20:38:44.699Z,7.50
2019-03-22T20:41:14.751Z,7.60
2019-03-22T20:43:44.716Z,7.60
2019-03-22T20:46:14.684Z,7.60
2019-03-22T20:48:44.707Z,7.60
2019-03-22T20:51:14.732Z,7.60
2019-03-22T20:53:44.730Z,7.60
2019-03-22T20:56:15.920Z,7.60
2019-03-22T20:58:45.895Z,7.60
2019-03-22T21:01:15.863Z,7.60
2019-03-22T21:03:45.887Z,7.70
2019-03-22T21:06:16.013Z,7.70
2019-03-22T21:08:46.139Z,7.70
2019-03-22T21:11:16.194Z,7.70
2019-03-22T21:13:46.391Z,7.70
2019-03-22T21:16:16.462Z,7.70
2019-03-22T21:18:46.532Z,7.70
2019-03-22T21:21:16.514Z,7.70
2019-03-22T21:23:46.603Z,7.70
2019-03-22T21:26:16.563Z,7.70
2019-03-22T21:28:46.549Z,7.80
2019-03-22T21:31:16.568Z,7.80
2019-03-22T21:33:46.728Z,7.80
2019-03-22T21:36:16.724Z,7.80
2019-03-22T21:38:46.731Z,7.80
2019-03-22T21:41:16.860Z,7.80
2019-03-22T21:43:46.895Z,7.80
2019-03-22T21:46:16.886Z,7.80
2019-03-22T21:48:46.860Z,7.80
2019-03-22T21:51:16.947Z,7.80
2019-03-22T21:53:46.923Z,7.90
2019-03-22T21:56:16.887Z,7.80
2019-03-22T21:58:46.863Z,7.90
2019-03-22T22:01:16.834Z,7.90
2019-03-22T22:03:46.811Z,7.90
2019-03-22T22:06:16.767Z,7.90
2019-03-22T22:08:46.791Z,7.90
2019-03-22T22:11:16.763Z,7.90
2019-03-22T22:13:46.759Z,7.90
2019-03-22T22:16:16.716Z,7.90
2019-03-22T22:18:46.727Z,7.90
2019-03-22T22:21:16.673Z,7.90
2019-03-22T22:23:46.669Z,8.00
2019-03-22T22:26:16.687Z,8.00
2019-03-22T22:28:46.636Z,8.00
2019-03-22T22:31:16.596Z,8.00
2019-03-22T22:33:46.950Z,8.00
2019-03-22T22:36:16.898Z,8.00
2019-03-22T22:38:46.963Z,8.00
2019-03-22T22:41:16.919Z,8.00
2019-03-22T22:43:48.576Z,8.00
2019-03-22T22:46:18.464Z,8.00
2019-03-22T22:48:48.425Z,8.00
2019-03-22T22:51:18.683Z,8.10
2019-03-22T22:53:48.699Z,8.00
2019-03-22T22:56:18.671Z,8.00
2019-03-22T22:58:48.763Z,8.10
2019-03-22T23:01:18.751Z,8.10
2019-03-22T23:03:48.726Z,8.10
2019-03-22T23:06:18.674Z,8.10
2019-03-22T23:08:48.682Z,8.10
2019-03-22T23:11:18.698Z,8.10
2019-03-22T23:13:48.667Z,8.10
2019-03-22T23:16:18.639Z,8.10
2019-03-22T23:18:48.613Z,8.10
2019-03-22T23:21:18.661Z,8.10
2019-03-22T23:23:48.874Z,8.10
2019-03-22T23:26:18.821Z,8.10
2019-03-22T23:28:48.921Z,8.10
2019-03-22T23:31:18.907Z,8.10
2019-03-22T23:33:48.876Z,8.10
2019-03-22T23:36:20.421Z,8.10
2019-03-22T23:38:50.592Z,8.10
2019-03-22T23:41:20.574Z,8.10
2019-03-22T23:43:50.531Z,8.10
2019-03-22T23:46:20.611Z,8.10
2019-03-22T23:48:50.619Z,8.10
2019-03-22T23:51:20.607Z,8.10
2019-03-22T23:53:50.604Z,8.10
2019-03-22T23:56:20.567Z,8.10
2019-03-22T23:58:50.603Z,8.00
